createdAt,value
2023-02-03T00:00:31.373Z,-0.75
2023-02-03T00:05:07.598Z,-0.83
2023-02-03T00:09:35.122Z,-0.92
2023-02-03T00:13:59.052Z,-1.02
2023-02-03T00:18:22.895Z,-1.06
2023-02-03T00:22:46.980Z,-1.09
2023-02-03T00:27:10.937Z,-1.14
2023-02-03T00:31:35.300Z,-1.14
2023-02-03T00:35:59.249Z,-1.09
2023-02-03T00:40:23.290Z,-1.01
2023-02-03T00:44:47.419Z,-0.97
2023-02-03T00:49:11.355Z,-0.89
2023-02-03T00:53:35.439Z,-0.79
2023-02-03T00:57:59.391Z,-0.75
2023-02-03T01:02:23.551Z,-0.76
2023-02-03T01:06:53.331Z,-0.79
2023-02-03T01:11:17.292Z,-0.83
2023-02-03T01:15:41.273Z,-0.88
2023-02-03T01:20:06.307Z,-0.94
2023-02-03T01:24:30.328Z,-0.98
2023-02-03T01:28:55.185Z,-1.01
2023-02-03T01:33:19.123Z,-1.13
2023-02-03T01:38:03.545Z,-1.18
2023-02-03T01:42:27.542Z,-1.24
2023-02-03T01:47:09.858Z,-1.23
2023-02-03T01:51:34.104Z,-1.11
2023-02-03T01:55:58.074Z,-1.12
2023-02-03T02:00:22.013Z,-1.15
2023-02-03T02:04:49.466Z,-1.17
2023-02-03T02:09:13.346Z,-1.22
2023-02-03T02:13:38.173Z,-1.25
2023-02-03T02:18:04.440Z,-1.29
2023-02-03T02:22:40.492Z,-1.44
2023-02-03T02:27:13.616Z,-1.54
2023-02-03T02:31:52.842Z,-1.69
2023-02-03T02:36:19.480Z,-1.79
2023-02-03T02:40:46.194Z,-1.82
2023-02-03T02:44:49.830Z,-1.80
2023-02-03T02:49:22.538Z,-1.87
2023-02-03T02:53:46.760Z,-1.91
2023-02-03T02:58:10.705Z,-1.94
2023-02-03T03:02:34.711Z,-1.97
2023-02-03T03:06:58.850Z,-1.87
2023-02-03T03:11:22.860Z,-1.69
2023-02-03T03:15:49.941Z,-1.69
2023-02-03T03:20:16.336Z,-1.74
2023-02-03T03:24:40.345Z,-1.81
2023-02-03T03:29:04.443Z,-1.81
2023-02-03T03:33:29.466Z,-1.82
2023-02-03T03:38:05.400Z,-1.87
2023-02-03T03:42:35.339Z,-1.89
2023-02-03T03:46:59.297Z,-1.92
2023-02-03T03:51:32.933Z,-1.95
2023-02-03T03:55:56.848Z,-1.98
2023-02-03T04:00:20.831Z,-2.00
2023-02-03T04:04:48.196Z,-1.96
2023-02-03T04:09:05.310Z,-1.92
2023-02-03T04:13:29.357Z,-1.88
2023-02-03T04:17:53.353Z,-1.82
2023-02-03T04:22:18.619Z,-1.78
2023-02-03T04:26:42.808Z,-1.64
2023-02-03T04:31:07.101Z,-1.63
2023-02-03T04:35:31.369Z,-1.65
2023-02-03T04:39:56.391Z,-1.65
2023-02-03T04:44:20.426Z,-1.71
2023-02-03T04:48:44.426Z,-1.76
2023-02-03T04:53:08.469Z,-1.82
2023-02-03T04:57:32.312Z,-1.87
2023-02-03T05:01:56.570Z,-1.87
2023-02-03T05:06:20.471Z,-1.92
2023-02-03T05:10:44.538Z,-1.96
2023-02-03T05:15:08.456Z,-2.01
2023-02-03T05:19:32.333Z,-2.01
2023-02-03T05:23:56.336Z,-1.92
2023-02-03T05:28:20.356Z,-1.91
2023-02-03T05:32:44.423Z,-1.87
2023-02-03T05:37:08.562Z,-1.88
2023-02-03T05:41:30.876Z,-1.86
2023-02-03T05:45:55.004Z,-1.85
2023-02-03T05:50:19.015Z,-1.82
2023-02-03T05:54:43.332Z,-1.78
2023-02-03T05:59:06.812Z,-1.74
2023-02-03T06:03:32.440Z,-1.71
2023-02-03T06:07:49.081Z,-1.68
2023-02-03T06:12:13.376Z,-1.67
2023-02-03T06:16:37.095Z,-1.69
2023-02-03T06:21:01.285Z,-1.76
2023-02-03T06:25:26.119Z,-1.80
2023-02-03T06:29:51.089Z,-1.81
2023-02-03T06:34:15.821Z,-1.77
2023-02-03T06:38:39.745Z,-1.74
2023-02-03T06:43:03.982Z,-1.69
2023-02-03T06:47:28.307Z,-1.69
2023-02-03T06:51:44.955Z,-1.65
2023-02-03T06:56:08.971Z,-1.64
2023-02-03T07:00:33.113Z,-1.66
2023-02-03T07:04:57.241Z,-1.67
2023-02-03T07:09:21.328Z,-1.71
2023-02-03T07:13:45.231Z,-1.71
2023-02-03T07:18:09.078Z,-1.64
2023-02-03T07:22:33.404Z,-1.55
2023-02-03T07:26:57.387Z,-1.45
2023-02-03T07:31:11.568Z,-1.38
2023-02-03T07:35:35.725Z,-1.33
2023-02-03T07:39:59.761Z,-1.27
2023-02-03T07:44:17.135Z,-1.19
2023-02-03T07:48:33.812Z,-1.14
2023-02-03T07:52:57.724Z,-1.09
2023-02-03T07:57:21.697Z,-1.03
2023-02-03T08:01:39.727Z,-0.96
2023-02-03T08:06:04.226Z,-0.84
2023-02-03T08:10:28.457Z,-0.73
2023-02-03T08:14:53.190Z,-0.67
2023-02-03T08:19:17.241Z,-0.61
2023-02-03T08:23:42.155Z,-0.55
2023-02-03T08:28:06.368Z,-0.50
2023-02-03T08:32:30.336Z,-0.48
2023-02-03T08:36:54.556Z,-0.48
2023-02-03T08:41:18.778Z,-0.48
2023-02-03T08:45:42.804Z,-0.50
2023-02-03T08:50:07.019Z,-0.51
2023-02-03T08:54:30.966Z,-0.47
2023-02-03T08:58:48.845Z,-0.43
2023-02-03T09:03:11.848Z,-0.40
2023-02-03T09:07:28.408Z,-0.32
2023-02-03T09:11:52.478Z,-0.21
2023-02-03T09:16:16.898Z,-0.11
2023-02-03T09:20:40.884Z,-0.02
2023-02-03T09:25:05.565Z,0.09
2023-02-03T09:29:29.491Z,0.13
2023-02-03T09:33:54.911Z,0.17
2023-02-03T09:38:18.999Z,0.20
2023-02-03T09:42:54.881Z,0.22
2023-02-03T09:47:18.793Z,0.23
2023-02-03T09:51:42.771Z,0.23
2023-02-03T09:56:09.407Z,0.22
2023-02-03T10:00:12.976Z,0.18
2023-02-03T10:04:45.796Z,0.14
2023-02-03T10:09:09.640Z,0.11
2023-02-03T10:13:45.904Z,0.04
2023-02-03T10:18:21.797Z,-0.01
2023-02-03T10:22:38.521Z,-0.02
2023-02-03T10:27:02.380Z,-0.09
2023-02-03T10:31:29.703Z,-0.14
2023-02-03T10:36:13.515Z,-0.15
2023-02-03T10:40:37.523Z,-0.21
2023-02-03T10:45:01.487Z,-0.31
2023-02-03T10:49:25.827Z,-0.32
2023-02-03T10:53:58.972Z,-0.35
2023-02-03T10:58:22.863Z,-0.40
2023-02-03T11:03:07.665Z,-0.44
2023-02-03T11:07:31.847Z,-0.40
2023-02-03T11:12:01.581Z,-0.37
2023-02-03T11:16:40.144Z,-0.41
2023-02-03T11:21:04.455Z,-0.46
2023-02-03T11:25:28.399Z,-0.41
2023-02-03T11:29:52.699Z,-0.42
2023-02-03T11:34:20.589Z,-0.37
2023-02-03T11:38:24.233Z,-0.32
2023-02-03T11:42:48.269Z,-0.36
2023-02-03T11:47:12.201Z,-0.39
2023-02-03T11:51:36.439Z,-0.40
2023-02-03T11:56:06.360Z,-0.34
2023-02-03T12:00:29.997Z,-0.33
2023-02-03T12:05:06.176Z,-0.30
2023-02-03T12:09:45.491Z,-0.34
2023-02-03T12:14:15.111Z,-0.36
2023-02-03T12:18:45.058Z,-0.36
2023-02-03T12:23:42.578Z,-0.31
2023-02-03T12:28:34.854Z,-0.32
2023-02-03T12:33:27.658Z,-0.31
2023-02-03T12:37:58.387Z,-0.32
2023-02-03T12:42:25.501Z,-0.25
2023-02-03T12:46:43.703Z,-0.21
2023-02-03T13:44:12.629Z,-0.80
2023-02-03T13:48:50.008Z,-0.89
2023-02-03T13:53:33.193Z,-0.86
2023-02-03T13:58:00.027Z,-0.86
2023-02-03T14:02:50.151Z,-0.81
2023-02-03T14:07:18.554Z,-0.74
2023-02-03T14:11:45.439Z,-0.58
2023-02-03T14:16:21.959Z,-0.47
2023-02-03T14:21:09.509Z,-0.36
2023-02-03T14:25:18.853Z,-0.32
2023-02-03T14:29:42.855Z,-0.28
2023-02-03T14:34:06.762Z,-0.25
2023-02-03T14:38:34.340Z,-0.22
2023-02-03T14:42:43.917Z,-0.21
2023-02-03T14:47:23.011Z,-0.26
2023-02-03T14:51:47.036Z,-0.26
2023-02-03T14:56:10.987Z,-0.27
2023-02-03T15:00:37.430Z,-0.29
2023-02-03T15:05:13.621Z,-0.30
2023-02-03T15:09:47.247Z,-0.31
2023-02-03T15:14:29.744Z,-0.28
2023-02-03T15:19:02.814Z,-0.29
2023-02-03T15:23:29.750Z,-0.28
2023-02-03T15:28:02.965Z,-0.29
2023-02-03T15:32:35.803Z,-0.32
2023-02-03T15:37:00.217Z,-0.30
2023-02-03T15:41:29.980Z,-0.34
2023-02-03T15:45:53.874Z,-0.35
2023-02-03T15:50:30.413Z,-0.31
2023-02-03T15:54:34.645Z,-0.33
2023-02-03T15:59:04.879Z,-0.32
2023-02-03T16:03:39.085Z,-0.37
2023-02-03T16:08:05.562Z,-0.34
2023-02-03T16:12:32.311Z,-0.36
2023-02-03T16:17:05.361Z,-0.39
2023-02-03T16:21:30.293Z,-0.45
2023-02-03T16:26:23.225Z,-0.60
2023-02-03T16:30:45.893Z,-0.58
2023-02-03T16:35:14.333Z,-0.59
2023-02-03T16:39:36.916Z,-0.61
2023-02-03T16:43:54.237Z,-0.62
2023-02-03T16:48:19.529Z,-0.68
2023-02-03T16:52:39.233Z,-0.71
2023-02-03T16:57:03.382Z,-0.73
2023-02-03T17:01:28.042Z,-0.75
2023-02-03T17:06:13.411Z,-0.64
2023-02-03T17:10:37.642Z,-0.55
2023-02-03T17:15:01.619Z,-0.53
2023-02-03T17:19:25.539Z,-0.56
2023-02-03T17:23:50.425Z,-0.62
2023-02-03T17:28:14.553Z,-0.70
2023-02-03T17:32:39.299Z,-0.75
2023-02-03T17:37:06.235Z,-0.69
2023-02-03T17:55:36.845Z,-0.79
2023-02-03T18:00:00.811Z,-0.82
2023-02-03T18:04:24.761Z,-0.82
2023-02-03T18:08:50.124Z,-0.86
2023-02-03T18:13:14.209Z,-1.02
2023-02-03T18:17:38.087Z,-1.12
2023-02-03T18:22:05.847Z,-1.22
2023-02-03T18:26:33.055Z,-1.21
2023-02-03T18:30:57.153Z,-1.21
2023-02-03T18:35:20.933Z,-1.31
2023-02-03T18:39:45.261Z,-1.34
2023-02-03T18:44:09.240Z,-1.45
2023-02-03T18:48:33.394Z,-1.50
2023-02-03T18:52:58.176Z,-1.51
2023-02-03T18:57:22.533Z,-1.50
2023-02-03T19:01:46.648Z,-1.44
2023-02-03T19:06:10.760Z,-1.45
2023-02-03T19:10:34.699Z,-1.52
2023-02-03T19:14:58.666Z,-1.62
2023-02-03T19:19:23.146Z,-1.69
2023-02-03T19:23:47.105Z,-1.76
2023-02-03T19:28:17.433Z,-2.01
2023-02-03T19:32:44.172Z,-2.21
2023-02-03T19:37:08.293Z,-2.32
2023-02-03T19:41:32.166Z,-2.48
2023-02-03T19:45:56.510Z,-2.60
2023-02-03T19:50:19.334Z,-2.59
2023-02-03T19:54:43.233Z,-2.66
2023-02-03T19:59:07.267Z,-2.73
2023-02-03T20:03:24.385Z,-2.73
2023-02-03T20:07:48.290Z,-2.67
2023-02-03T20:12:04.750Z,-2.59
2023-02-03T20:16:28.845Z,-2.48
2023-02-03T20:20:52.864Z,-2.55
2023-02-03T20:25:17.767Z,-2.55
2023-02-03T20:29:41.711Z,-2.57
2023-02-03T20:33:58.413Z,-2.60
2023-02-03T20:38:02.802Z,-2.59
2023-02-03T20:42:26.725Z,-2.57
2023-02-03T20:46:51.680Z,-2.54
2023-02-03T20:51:21.589Z,-2.53
2023-02-03T20:55:57.503Z,-2.57
2023-02-03T21:00:29.614Z,-2.61
2023-02-03T21:04:52.683Z,-2.62
2023-02-03T21:09:16.639Z,-2.66
2023-02-03T21:13:40.597Z,-2.66
2023-02-03T21:18:04.657Z,-2.60
2023-02-03T21:22:28.731Z,-2.53
2023-02-03T21:27:01.492Z,-2.41
2023-02-03T21:31:28.475Z,-2.33
2023-02-03T21:35:51.256Z,-2.32
2023-02-03T21:40:24.164Z,-2.24
2023-02-03T21:44:48.119Z,-2.01
2023-02-03T21:49:05.436Z,-1.66
2023-02-03T21:53:29.641Z,-1.39
2023-02-03T21:57:53.904Z,-1.16
2023-02-03T22:02:20.852Z,-0.98
2023-02-03T22:06:44.850Z,-0.87
2023-02-03T22:11:08.783Z,-0.77
2023-02-03T22:15:32.434Z,-0.61
2023-02-03T22:19:56.319Z,-0.52
2023-02-03T22:24:19.905Z,-0.44
2023-02-03T22:28:44.164Z,-0.42
2023-02-03T22:33:08.229Z,-0.43
2023-02-03T22:37:32.360Z,-0.37
2023-02-03T22:41:56.311Z,-0.38
2023-02-03T22:46:20.304Z,-0.32
2023-02-03T22:50:44.363Z,-0.21
2023-02-03T22:55:08.279Z,-0.20
2023-02-03T22:59:32.197Z,-0.20
2023-02-03T23:03:55.247Z,-0.24
2023-02-03T23:08:19.190Z,-0.31
2023-02-03T23:12:43.285Z,-0.33
2023-02-03T23:16:59.891Z,-0.43
2023-02-03T23:21:24.050Z,-0.46
2023-02-03T23:25:48.153Z,-0.49
2023-02-03T23:30:12.140Z,-0.53
2023-02-03T23:34:34.603Z,-0.58
2023-02-03T23:38:59.015Z,-0.68
2023-02-03T23:43:21.981Z,-0.74
2023-02-03T23:47:46.349Z,-0.82
2023-02-03T23:52:00.398Z,-0.91
2023-02-03T23:56:24.490Z,-0.87
